Time;durP1;ratioP1;P1;durP2;ratioP2;P2;SDS_P1;SDS_P2;PMS_P1;PMS_P2;Temp;Humidity;BMP_temperature;BMP_pressure;BME280_temperature;BME280_humidity;BME280_pressure;Samples;Min_cycle;Max_cycle;Signal;HPM_P1;HPM_P2
2022/04/30 00:02:07;;;;;;;6.60;2.75;;;12.90;99.90;;;;;;4894961;29;20124;-85
2022/04/30 00:04:50;;;;;;;3.67;2.00;;;12.90;99.90;;;;;;4912931;29;20075;-85
2022/04/30 00:07:18;;;;;;;3.78;2.28;;;12.90;99.90;;;;;;4897565;29;20053;-85
2022/04/30 00:09:45;;;;;;;4.28;2.45;;;12.90;99.90;;;;;;4914746;29;20028;-86
2022/04/30 00:12:11;;;;;;;5.75;2.60;;;12.90;99.90;;;;;;4918570;29;20083;-85
2022/04/30 00:14:38;;;;;;;5.95;2.58;;;12.90;99.90;;;;;;4901043;29;20112;-86
2022/04/30 00:17:04;;;;;;;5.30;2.75;;;12.80;99.90;;;;;;4916911;29;20024;-85
2022/04/30 00:19:30;;;;;;;5.00;2.47;;;12.80;99.90;;;;;;4913073;29;20116;-86
2022/04/30 00:21:56;;;;;;;4.63;2.65;;;12.90;99.90;;;;;;4902574;29;20048;-85
2022/04/30 00:24:23;;;;;;;4.57;2.28;;;12.80;99.90;;;;;;4896750;29;20032;-85
2022/04/30 00:26:49;;;;;;;4.57;2.25;;;12.80;99.90;;;;;;4899229;29;20589;-85
2022/04/30 00:29:14;;;;;;;5.30;2.80;;;12.80;99.90;;;;;;4915162;29;20032;-85
2022/04/30 00:31:40;;;;;;;5.70;3.03;;;12.70;99.90;;;;;;4917295;29;20024;-85
2022/04/30 00:34:06;;;;;;;5.55;2.80;;;12.80;99.90;;;;;;4899811;29;20083;-85
2022/04/30 00:36:32;;;;;;;4.97;2.75;;;12.70;99.90;;;;;;4916034;29;20040;-85
2022/04/30 00:38:57;;;;;;;4.65;2.08;;;12.60;99.90;;;;;;4913886;29;20028;-85
2022/04/30 00:41:23;;;;;;;5.13;2.20;;;12.70;99.90;;;;;;4892115;29;21178;-85
2022/04/30 00:43:53;;;;;;;4.22;2.28;;;12.60;99.90;;;;;;4894134;29;20032;-85
2022/04/30 00:46:23;;;;;;;5.38;2.67;;;12.50;99.90;;;;;;4909018;29;20089;-85
2022/04/30 00:48:50;;;;;;;5.07;2.28;;;12.70;99.90;;;;;;4906877;29;20139;-85
2022/04/30 00:51:19;;;;;;;4.88;2.33;;;12.60;99.90;;;;;;4898157;29;20024;-86
2022/04/30 00:53:51;;;;;;;3.45;1.98;;;12.60;99.90;;;;;;4894934;29;20029;-85
2022/04/30 00:56:47;;;;;;;5.28;2.53;;;12.60;99.90;;;;;;4906579;29;20037;-84
2022/04/30 00:59:18;;;;;;;4.03;2.13;;;12.60;99.90;;;;;;4915275;29;20044;-85
2022/04/30 01:01:48;;;;;;;5.82;2.13;;;12.50;99.90;;;;;;4898776;29;20029;-85
2022/04/30 01:04:14;;;;;;;4.32;2.17;;;12.50;99.90;;;;;;4914340;29;20020;-85
2022/04/30 01:06:51;;;;;;;5.07;2.17;;;12.50;99.90;;;;;;4917124;29;20071;-86
2022/04/30 01:09:25;;;;;;;3.97;2.17;;;12.50;99.90;;;;;;4915030;29;20028;-84
2022/04/30 01:12:00;;;;;;;4.72;2.78;;;12.50;99.90;;;;;;4908240;29;20021;-85
2022/04/30 01:14:37;;;;;;;6.75;2.65;;;12.40;99.90;;;;;;4913721;29;20050;-85
2022/04/30 01:17:05;;;;;;;5.20;2.70;;;12.40;99.90;;;;;;4914313;29;20028;-85
2022/04/30 01:19:32;;;;;;;6.18;3.13;;;12.40;99.90;;;;;;4911843;29;20112;-85
2022/04/30 01:22:00;;;;;;;7.40;3.30;;;12.40;99.90;;;;;;4916878;29;20026;-85
2022/04/30 01:24:28;;;;;;;6.40;3.30;;;12.30;99.90;;;;;;4909206;29;20032;-84
2022/04/30 01:26:55;;;;;;;6.07;3.50;;;12.20;99.90;;;;;;4911547;29;20028;-84
2022/04/30 01:29:55;;;;;;;8.45;3.95;;;12.10;99.90;;;;;;5033210;23;20043;-91
2022/04/30 01:38:15;;;;;;;12.32;5.38;;;11.90;99.90;;;;;;4970899;29;20034;-89
2022/04/30 01:40:44;;;;;;;13.38;4.97;;;11.90;99.90;;;;;;4963774;29;20023;-90
2022/04/30 01:43:13;;;;;;;7.97;4.50;;;11.90;99.90;;;;;;4950079;29;20043;-90
2022/04/30 01:46:12;;;;;;;11.02;5.45;;;11.80;99.90;;;;;;4947240;29;20024;-90
2022/04/30 01:49:03;;;;;;;11.20;5.00;;;11.80;99.90;;;;;;4949401;29;20031;-90
2022/04/30 01:51:39;;;;;;;;;;;;;;;;;;;;;
2022/04/30 01:54:10;;;;;;;12.68;6.00;;;11.70;99.90;;;;;;4966530;29;20558;-90
2022/04/30 01:56:36;;;;;;;10.07;5.35;;;11.60;99.90;;;;;;4947306;29;20037;-89
2022/04/30 01:59:17;;;;;;;12.38;5.20;;;11.70;99.90;;;;;;4960978;29;20052;-91
2022/04/30 02:01:53;;;;;;;8.52;3.97;;;11.70;99.90;;;;;;4952113;29;20046;-90
2022/04/30 02:04:37;;;;;;;10.85;5.03;;;11.60;99.90;;;;;;4962024;28;20080;-90
2022/04/30 02:07:13;;;;;;;12.68;5.72;;;11.60;99.90;;;;;;4946811;29;20023;-89
2022/04/30 02:09:39;;;;;;;11.68;5.88;;;11.60;99.90;;;;;;4957480;29;20638;-90
2022/04/30 02:12:08;;;;;;;11.18;5.75;;;11.60;99.90;;;;;;4941665;29;20034;-89
2022/04/30 02:14:35;;;;;;;11.18;5.70;;;11.60;99.90;;;;;;4944260;29;20063;-91
2022/04/30 02:17:13;;;;;;;14.75;5.13;;;11.60;99.90;;;;;;4962060;29;20095;-90
2022/04/30 02:22:30;;;;;;;8.98;5.13;;;11.60;99.90;;;;;;4964083;29;20048;-91
2022/04/30 02:25:02;;;;;;;10.10;5.38;;;11.40;99.90;;;;;;4964837;28;20038;-90
2022/04/30 02:27:33;;;;;;;11.05;5.40;;;11.50;99.90;;;;;;4959575;29;20454;-91
2022/04/30 02:30:12;;;;;;;11.23;5.32;;;11.60;99.90;;;;;;4956425;29;20114;-90
2022/04/30 02:32:53;;;;;;;13.85;5.97;;;11.50;99.90;;;;;;4948830;29;20047;-90
2022/04/30 02:35:29;;;;;;;11.18;5.60;;;11.50;99.90;;;;;;4944497;29;20041;-91
2022/04/30 02:38:01;;;;;;;11.80;5.53;;;11.50;99.90;;;;;;4944867;29;20490;-89
2022/04/30 02:40:33;;;;;;;12.90;5.72;;;11.50;99.90;;;;;;4940789;29;20023;-90
2022/04/30 02:43:25;;;;;;;14.13;5.63;;;11.40;99.90;;;;;;4942242;29;20046;-91
2022/04/30 02:45:51;;;;;;;12.15;5.38;;;11.40;99.90;;;;;;4941170;29;20043;-90
2022/04/30 02:51:32;;;;;;;14.27;5.47;;;11.40;99.90;;;;;;4958787;29;20455;-90
2022/04/30 02:54:00;;;;;;;13.02;5.53;;;11.40;99.90;;;;;;4959482;29;20716;-91
2022/04/30 02:56:31;;;;;;;10.45;4.93;;;11.50;99.90;;;;;;4958055;29;20023;-91
2022/04/30 03:01:53;;;;;;;11.13;5.13;;;11.40;99.90;;;;;;4958587;29;20066;-90
2022/04/30 03:07:40;;;;;;;10.77;5.00;;;11.30;99.90;;;;;;4961054;28;20031;-91
2022/04/30 03:10:22;;;;;;;11.52;5.70;;;11.30;99.90;;;;;;4944472;29;20103;-90
2022/04/30 03:12:55;;;;;;;9.45;4.68;;;11.30;99.90;;;;;;4941306;29;20020;-91
2022/04/30 03:15:29;;;;;;;8.57;4.78;;;11.30;99.90;;;;;;4942583;29;20091;-90
2022/04/30 03:23:40;;;;;;;12.80;5.53;;;11.30;99.90;;;;;;4960897;29;20034;-90
2022/04/30 03:26:15;;;;;;;13.07;6.05;;;11.30;99.90;;;;;;4959426;28;20094;-91
2022/04/30 03:28:42;;;;;;;12.05;5.50;;;11.20;99.90;;;;;;4947041;29;20027;-91
2022/04/30 03:31:11;;;;;;;9.18;4.70;;;11.20;99.90;;;;;;4943424;29;20027;-90
2022/04/30 03:33:43;;;;;;;11.32;5.55;;;11.10;99.90;;;;;;4943762;28;20048;-91
2022/04/30 03:36:26;;;;;;;14.00;6.20;;;11.10;99.90;;;;;;4943165;29;20050;-91
2022/04/30 03:38:56;;;;;;;14.82;5.65;;;11.10;99.90;;;;;;4948502;28;20039;-91
2022/04/30 03:41:22;;;;;;;11.40;5.68;;;11.10;99.90;;;;;;4961608;28;20027;-91
2022/04/30 03:44:16;;;;;;;12.73;5.97;;;11.10;99.90;;;;;;4945641;29;20057;-91
2022/04/30 03:46:50;;;;;;;13.82;6.18;;;11.00;99.90;;;;;;4944215;29;20030;-91
2022/04/30 03:49:36;;;;;;;14.02;6.47;;;11.00;99.90;;;;;;4958429;28;20494;-92
2022/04/30 03:52:11;;;;;;;12.27;5.43;;;11.00;99.90;;;;;;4943102;29;20023;-91
2022/04/30 03:54:48;;;;;;;15.75;6.35;;;11.00;99.90;;;;;;4939665;29;20054;-91
2022/04/30 03:57:14;;;;;;;13.90;6.88;;;10.90;99.90;;;;;;4960288;29;20032;-91
2022/04/30 03:59:42;;;;;;;16.23;6.90;;;10.90;99.90;;;;;;4941232;29;20554;-91
2022/04/30 04:02:44;;;;;;;14.60;6.82;;;10.80;99.90;;;;;;4942250;29;20035;-91
2022/04/30 04:05:28;;;;;;;14.38;6.78;;;10.90;99.90;;;;;;4939034;29;20072;-91
2022/04/30 04:08:14;;;;;;;14.35;6.95;;;10.90;99.90;;;;;;4965591;28;20459;-91
2022/04/30 04:10:51;;;;;;;14.70;6.97;;;10.80;99.90;;;;;;4943020;29;20482;-91
2022/04/30 04:18:56;;;;;;;14.15;6.95;;;10.70;99.90;;;;;;4954011;28;20051;-90
2022/04/30 04:21:23;;;;;;;15.38;7.70;;;10.70;99.90;;;;;;4943379;29;20027;-90
2022/04/30 04:27:22;;;;;;;13.10;6.15;;;10.70;99.90;;;;;;4963202;29;20038;-90
2022/04/30 04:29:48;;;;;;;14.18;7.18;;;10.70;99.90;;;;;;4957302;28;20039;-91
2022/04/30 04:32:41;;;;;;;19.33;7.95;;;10.70;99.90;;;;;;4954569;29;20024;-91
2022/04/30 04:35:09;;;;;;;13.27;7.15;;;10.70;99.90;;;;;;4941632;29;20038;-90
2022/04/30 04:38:01;;;;;;;14.88;6.65;;;10.80;99.90;;;;;;4943947;29;20055;-91
2022/04/30 04:40:37;;;;;;;14.75;6.90;;;10.70;99.90;;;;;;5131871;23;20056;-91
2022/04/30 04:43:21;;;;;;;15.77;7.72;;;10.60;99.90;;;;;;4932461;29;20047;-91
2022/04/30 04:46:06;;;;;;;13.75;6.50;;;10.80;99.90;;;;;;4933194;29;20028;-91
2022/04/30 04:49:04;;;;;;;16.75;7.90;;;10.70;99.90;;;;;;4927091;29;20047;-92
2022/04/30 04:52:05;;;;;;;16.38;7.80;;;10.60;99.90;;;;;;4915174;29;20044;-92
2022/04/30 04:54:33;;;;;;;14.80;6.93;;;10.70;99.90;;;;;;4934085;29;20024;-92
2022/04/30 04:57:09;;;;;;;13.57;7.47;;;10.70;99.90;;;;;;4931582;29;20865;-92
2022/04/30 05:03:07;;;;;;;17.17;7.70;;;10.60;99.90;;;;;;4931709;29;20028;-92
2022/04/30 05:05:51;;;;;;;14.95;7.35;;;10.70;99.90;;;;;;4915629;29;20035;-92
2022/04/30 05:08:54;;;;;;;;;;;;;;;;;;;;;
2022/04/30 05:25:07;;;;;;;12.00;6.40;;;10.80;99.90;;;;;;4834725;29;20049;-91
2022/04/30 05:37:21;;;;;;;14.40;6.47;;;10.80;99.90;;;;;;1107611;23;20466;-89
2022/04/30 05:42:50;;;;;;;14.88;7.30;;;10.80;99.90;;;;;;4949787;29;20114;-89
2022/04/30 05:45:23;;;;;;;13.98;7.18;;;10.80;99.90;;;;;;4965844;29;20389;-90
2022/04/30 05:47:49;;;;;;;;;;;10.80;99.90;;;;;;4949409;29;20051;-90
2022/04/30 05:53:50;;;;;;;13.80;6.97;;;10.90;99.90;;;;;;4959135;29;20370;-90
2022/04/30 05:56:24;;;;;;;18.35;6.88;;;10.90;99.90;;;;;;4963117;28;20044;-90
2022/04/30 05:58:55;;;;;;;13.70;6.57;;;11.00;99.90;;;;;;4936647;29;20043;-89
2022/04/30 06:01:21;;;;;;;15.20;7.47;;;11.00;99.90;;;;;;4963705;29;20090;-90
2022/04/30 06:03:47;;;;;;;14.10;6.97;;;11.00;99.90;;;;;;4946039;29;20027;-90
2022/04/30 06:06:45;;;;;;;;;;;;;;;;;;;;;
2022/04/30 06:09:26;;;;;;;15.40;6.88;;;10.90;99.90;;;;;;4958765;29;20103;-90
2022/04/30 06:15:41;;;;;;;14.45;6.63;;;10.90;99.90;;;;;;4960603;29;20055;-90
2022/04/30 06:18:15;;;;;;;16.98;6.85;;;10.90;99.90;;;;;;4946516;29;20035;-90
2022/04/30 06:31:27;;;;;;;11.98;6.75;;;11.20;99.90;;;;;;4895436;29;20029;-89
2022/04/30 06:34:26;;;;;;;;;;;;;;;;;;;;;
2022/04/30 06:37:22;;;;;;;15.88;7.82;;;11.20;99.90;;;;;;4894816;29;20084;-89
2022/04/30 06:40:20;;;;;;;;;;;;;;;;;;;;;
2022/04/30 06:49:21;;;;;;;13.80;6.50;;;11.60;99.90;;;;;;4872921;29;20035;-90
2022/04/30 06:52:06;;;;;;;;;;;;;;;;;;;;;
2022/04/30 06:57:47;;;;;;;13.95;7.35;;;11.80;99.90;;;;;;4902267;29;20124;-89
2022/04/30 07:03:31;;;;;;;12.60;6.63;;;11.90;99.90;;;;;;4886336;29;20044;-90
2022/04/30 07:06:05;;;;;;;12.07;6.10;;;11.70;99.90;;;;;;4854501;29;20038;-89
2022/04/30 07:08:35;;;;;;;11.10;6.70;;;11.70;99.90;;;;;;4877738;23;20026;-88
2022/04/30 07:11:04;;;;;;;13.13;6.63;;;11.70;99.90;;;;;;4958830;29;20037;-88
2022/04/30 07:13:33;;;;;;;11.70;6.35;;;11.70;99.90;;;;;;4943598;29;20038;-88
2022/04/30 07:15:59;;;;;;;14.43;6.70;;;11.70;99.90;;;;;;4941783;29;20118;-88
2022/04/30 07:18:28;;;;;;;12.90;6.80;;;11.80;99.90;;;;;;4941602;29;20039;-87
2022/04/30 07:20:57;;;;;;;13.73;6.95;;;11.80;99.90;;;;;;4939629;29;20030;-89
2022/04/30 07:23:22;;;;;;;11.57;6.28;;;11.90;99.90;;;;;;4939014;29;20031;-88
2022/04/30 07:25:57;;;;;;;10.93;5.88;;;11.90;99.90;;;;;;4955763;29;20045;-89
2022/04/30 07:28:35;;;;;;;10.07;5.75;;;11.90;99.90;;;;;;4954785;29;20020;-88
2022/04/30 07:31:21;;;;;;;13.35;6.38;;;11.90;99.90;;;;;;4947244;29;20054;-88
2022/04/30 07:33:57;;;;;;;13.85;6.15;;;11.80;99.90;;;;;;4957826;29;20024;-89
2022/04/30 07:36:27;;;;;;;12.93;6.25;;;11.60;99.90;;;;;;4939716;29;20042;-87
2022/04/30 07:38:58;;;;;;;12.93;6.15;;;11.70;99.90;;;;;;4941287;29;20118;-89
2022/04/30 07:41:35;;;;;;;10.88;5.63;;;11.70;99.90;;;;;;4941040;29;20050;-88
2022/04/30 07:44:10;;;;;;;13.68;6.03;;;11.80;99.90;;;;;;4939459;29;20024;-89
2022/04/30 07:46:37;;;;;;;11.75;5.95;;;11.70;99.90;;;;;;4939234;29;20069;-88
2022/04/30 07:49:18;;;;;;;11.55;6.47;;;11.90;99.90;;;;;;4940324;28;20028;-88
2022/04/30 07:52:02;;;;;;;13.95;6.70;;;11.70;99.90;;;;;;4941473;29;20034;-88
2022/04/30 07:54:30;;;;;;;12.35;6.10;;;11.80;99.90;;;;;;4921303;29;20028;-88
2022/04/30 07:57:05;;;;;;;12.68;6.50;;;11.80;99.90;;;;;;4921431;29;20039;-88
2022/04/30 07:59:39;;;;;;;11.48;6.28;;;11.80;99.90;;;;;;4946835;28;20055;-89
2022/04/30 08:02:27;;;;;;;12.00;5.97;;;11.80;99.90;;;;;;4942470;29;20059;-88
2022/04/30 08:04:55;;;;;;;10.00;5.22;;;11.80;99.90;;;;;;4942029;29;20035;-89
2022/04/30 08:07:29;;;;;;;11.18;5.93;;;11.90;99.90;;;;;;4943251;29;20043;-89
2022/04/30 08:10:03;;;;;;;14.30;6.10;;;11.90;99.90;;;;;;4941758;29;20055;-89
2022/04/30 08:12:29;;;;;;;11.50;5.95;;;11.80;99.90;;;;;;4943418;29;20422;-89
2022/04/30 08:15:03;;;;;;;10.55;5.80;;;11.80;99.90;;;;;;4942482;29;20498;-89
2022/04/30 08:17:34;;;;;;;12.57;6.25;;;12.00;99.90;;;;;;4940923;28;20062;-90
2022/04/30 08:20:03;;;;;;;10.90;6.22;;;12.10;99.90;;;;;;4939552;29;20027;-87
2022/04/30 08:22:28;;;;;;;10.32;5.72;;;12.20;99.90;;;;;;4923816;29;20036;-88
2022/04/30 08:24:59;;;;;;;15.05;6.05;;;12.20;99.90;;;;;;4939865;29;20058;-88
2022/04/30 08:27:25;;;;;;;15.15;5.50;;;12.30;99.90;;;;;;4942865;28;20107;-88
2022/04/30 08:29:50;;;;;;;10.73;5.20;;;12.60;99.90;;;;;;4942292;29;20118;-88
2022/04/30 08:32:26;;;;;;;9.15;4.75;;;12.60;99.90;;;;;;4944297;29;20038;-88
2022/04/30 08:34:53;;;;;;;9.25;4.57;;;12.60;99.90;;;;;;4945440;29;20035;-89
2022/04/30 08:37:19;;;;;;;8.60;4.72;;;12.50;99.90;;;;;;4944079;29;20059;-88
2022/04/30 08:39:45;;;;;;;9.23;4.72;;;12.50;99.90;;;;;;4961556;29;20031;-88
2022/04/30 08:42:16;;;;;;;10.18;5.00;;;12.40;99.90;;;;;;4929301;29;20032;-88
2022/04/30 08:44:41;;;;;;;8.63;4.82;;;12.20;99.90;;;;;;4944745;29;20405;-88
2022/04/30 08:47:10;;;;;;;11.25;5.32;;;12.20;99.90;;;;;;4945433;29;20023;-88
2022/04/30 08:49:42;;;;;;;10.95;4.93;;;12.10;99.90;;;;;;4944841;29;20031;-88
2022/04/30 08:52:10;;;;;;;9.40;4.60;;;12.10;99.90;;;;;;4964014;28;20031;-88
2022/04/30 08:54:38;;;;;;;10.25;4.90;;;12.00;99.90;;;;;;4981984;28;20534;-88
2022/04/30 08:57:08;;;;;;;7.40;4.60;;;11.90;99.90;;;;;;4963815;28;20030;-87
2022/04/30 08:59:33;;;;;;;9.70;5.15;;;11.80;99.90;;;;;;4957037;29;20038;-88
2022/04/30 09:02:11;;;;;;;9.27;5.13;;;11.70;99.90;;;;;;4944477;29;20409;-88
2022/04/30 09:04:45;;;;;;;9.95;4.95;;;11.70;99.90;;;;;;4962377;29;20390;-88
2022/04/30 09:07:22;;;;;;;9.60;4.88;;;11.70;99.90;;;;;;4959289;29;20059;-88
2022/04/30 09:09:59;;;;;;;7.22;4.10;;;11.70;99.90;;;;;;4945409;29;20429;-88
2022/04/30 09:12:29;;;;;;;7.93;4.22;;;11.60;99.90;;;;;;4944965;29;20114;-89
2022/04/30 09:14:55;;;;;;;7.22;3.85;;;11.40;99.90;;;;;;4961334;29;20035;-87
2022/04/30 09:17:24;;;;;;;8.57;4.72;;;11.40;99.90;;;;;;4944258;29;20035;-87
2022/04/30 09:20:01;;;;;;;7.60;4.25;;;11.40;99.90;;;;;;4945737;29;20054;-88
2022/04/30 09:22:37;;;;;;;7.78;3.78;;;11.40;99.90;;;;;;4963490;29;20027;-87
2022/04/30 09:25:09;;;;;;;8.18;4.35;;;11.40;99.90;;;;;;4958185;28;20093;-87
2022/04/30 09:27:45;;;;;;;9.82;4.30;;;11.40;99.90;;;;;;4951946;29;20166;-88
2022/04/30 09:30:17;;;;;;;7.78;4.10;;;11.30;99.90;;;;;;4951032;28;20032;-88
2022/04/30 09:32:44;;;;;;;7.45;4.00;;;11.40;99.90;;;;;;4952373;29;20379;-88
2022/04/30 09:38:07;;;;;;;7.28;4.00;;;11.30;99.90;;;;;;4962964;28;20046;-87
2022/04/30 09:40:33;;;;;;;7.03;3.45;;;11.30;99.90;;;;;;4945484;29;20398;-88
2022/04/30 09:43:19;;;;;;;7.13;3.63;;;11.30;99.90;;;;;;4946781;29;20370;-88
2022/04/30 09:45:44;;;;;;;7.10;3.42;;;11.30;99.90;;;;;;4961304;29;20039;-89
2022/04/30 09:54:00;;;;;;;6.63;3.65;;;11.30;99.90;;;;;;4942224;29;20031;-89
2022/04/30 09:56:44;;;;;;;7.03;3.70;;;11.40;99.90;;;;;;4923823;29;20032;-88
2022/04/30 09:59:12;;;;;;;5.35;3.05;;;11.50;99.90;;;;;;4943458;28;20027;-88
2022/04/30 10:01:40;;;;;;;7.03;3.75;;;11.50;99.90;;;;;;4942970;29;20034;-88
2022/04/30 10:04:13;;;;;;;6.70;3.22;;;11.70;99.90;;;;;;4941842;29;20031;-88
2022/04/30 10:06:51;;;;;;;5.38;2.45;;;11.70;99.90;;;;;;4942135;29;20117;-87
2022/04/30 10:09:22;;;;;;;4.88;2.25;;;11.70;99.90;;;;;;4946876;29;20031;-88
2022/04/30 10:12:31;;;;;;;4.47;2.28;;;11.90;99.90;;;;;;4941519;29;20478;-88
2022/04/30 10:15:21;;;;;;;4.28;2.40;;;12.00;99.90;;;;;;4958212;29;20027;-87
2022/04/30 10:17:57;;;;;;;4.75;2.50;;;12.00;99.90;;;;;;4941485;29;20442;-87
2022/04/30 10:20:34;;;;;;;4.30;2.40;;;12.10;99.90;;;;;;4941704;29;20065;-87
2022/04/30 10:23:04;;;;;;;5.63;2.78;;;12.20;99.90;;;;;;4944393;29;20028;-87
2022/04/30 10:25:46;;;;;;;4.65;2.63;;;12.30;99.90;;;;;;4949421;29;20098;-88
2022/04/30 10:28:14;;;;;;;6.15;2.60;;;12.40;99.90;;;;;;4945162;29;20046;-87
2022/04/30 10:30:44;;;;;;;4.82;2.22;;;12.40;99.90;;;;;;4957304;29;20395;-88
2022/04/30 10:33:14;;;;;;;4.65;2.75;;;12.40;99.90;;;;;;4944194;28;20019;-88
2022/04/30 10:35:48;;;;;;;4.85;2.35;;;12.40;99.90;;;;;;4938514;29;20095;-88
2022/04/30 10:38:21;;;;;;;5.88;2.97;;;12.50;99.90;;;;;;4937531;29;20110;-88
2022/04/30 10:41:00;;;;;;;5.18;2.47;;;12.50;99.90;;;;;;4945741;29;20037;-88
2022/04/30 10:43:35;;;;;;;4.25;2.75;;;12.50;99.90;;;;;;4938220;29;20122;-89
2022/04/30 10:46:21;;;;;;;5.53;2.58;;;12.60;99.90;;;;;;4938701;29;20027;-89
2022/04/30 11:03:27;;;;;;;;;;;;;;;;;;;;;
2022/04/30 11:06:53;;;;;;;6.78;2.85;;;13.80;99.90;;;;;;4808555;29;20049;-90
2022/04/30 11:09:28;;;;;;;4.53;2.20;;;13.70;99.90;;;;;;4863205;29;20095;-90
2022/04/30 11:12:47;;;;;;;3.97;2.25;;;13.60;99.90;;;;;;4882358;29;20032;-90
2022/04/30 11:27:03;;;;;;;;;;;;;;;;;;;;;
2022/04/30 11:30:16;;;;;;;3.42;1.83;;;12.70;99.90;;;;;;4784807;30;20154;-90
2022/04/30 11:33:40;;;;;;;;;;;;;;;;;;;;;
2022/04/30 11:36:56;;;;;;;3.15;1.30;;;12.30;99.90;;;;;;4859247;29;20554;-89
2022/04/30 11:42:43;;;;;;;3.30;1.33;;;12.10;99.90;;;;;;4949643;23;20059;-88
2022/04/30 11:52:45;;;;;;;2.78;1.23;;;11.80;99.90;;;;;;4846257;29;20045;-89
2022/04/30 11:55:15;;;;;;;2.47;1.48;;;11.90;99.90;;;;;;4850762;29;20078;-89
2022/04/30 11:57:42;;;;;;;4.78;2.03;;;11.90;99.90;;;;;;4950107;29;20043;-90
2022/04/30 12:00:15;;;;;;;3.33;1.58;;;11.90;99.90;;;;;;4959841;29;20027;-89
2022/04/30 12:02:45;;;;;;;3.15;1.45;;;12.00;99.90;;;;;;4942236;29;20276;-90
2022/04/30 12:05:13;;;;;;;3.78;1.60;;;12.20;99.90;;;;;;4958579;29;20027;-89
2022/04/30 12:07:50;;;;;;;3.38;1.70;;;12.80;99.90;;;;;;4956336;29;20031;-90
2022/04/30 12:10:22;;;;;;;4.55;1.80;;;13.10;99.90;;;;;;4940976;28;20034;-89
2022/04/30 12:12:51;;;;;;;3.38;1.60;;;13.30;99.90;;;;;;4944143;29;20035;-89
2022/04/30 12:15:41;;;;;;;2.83;1.35;;;13.30;99.90;;;;;;4944598;29;20023;-88
2022/04/30 12:24:43;;;;;;;3.88;1.60;;;12.80;99.90;;;;;;4954982;29;20031;-89
2022/04/30 12:30:24;;;;;;;3.35;1.55;;;13.40;99.90;;;;;;4862504;29;20029;-89
2022/04/30 12:33:04;;;;;;;3.75;1.67;;;13.40;99.90;;;;;;4943530;29;20042;-89
2022/04/30 12:39:56;;;;;;;3.38;1.45;;;13.10;99.90;;;;;;4968640;23;20083;-90
2022/04/30 12:47:42;;;;;;;3.33;1.70;;;13.50;99.90;;;;;;4918961;29;20555;-91
2022/04/30 16:01:27;;;;;;;5.82;2.65;;;14.40;99.90;;;;;;4966800;28;20050;-91
2022/04/30 16:04:01;;;;;;;6.82;2.90;;;14.20;99.90;;;;;;4960157;28;20099;-91
2022/04/30 16:06:33;;;;;;;6.63;2.60;;;14.20;99.90;;;;;;4953327;28;20046;-91
2022/04/30 16:09:01;;;;;;;5.55;2.47;;;14.10;99.90;;;;;;4959279;28;20026;-91
2022/04/30 16:12:01;;;;;;;5.45;2.55;;;13.90;99.90;;;;;;4957045;28;20035;-92
2022/04/30 16:14:26;;;;;;;4.80;2.35;;;13.70;99.90;;;;;;4950307;29;20047;-93
2022/04/30 16:20:10;;;;;;;;;;;;;;;;;;;;;
2022/04/30 16:22:42;;;;;;;5.53;2.65;;;13.00;99.90;;;;;;4965700;28;20083;-92
2022/04/30 16:25:19;;;;;;;5.07;2.83;;;12.80;99.90;;;;;;4944507;28;20046;-92
2022/04/30 16:28:07;;;;;;;;;;;;;;;;;;;;;
2022/04/30 16:30:36;;;;;;;4.85;2.58;;;12.60;99.90;;;;;;4971803;28;20107;-92
2022/04/30 16:33:18;;;;;;;5.95;2.90;;;12.70;99.90;;;;;;4943608;28;20032;-91
2022/04/30 16:35:53;;;;;;;;;;;12.60;99.90;;;;;;4945099;28;20564;-91
2022/04/30 16:38:21;;;;;;;5.10;2.58;;;12.40;99.90;;;;;;4957020;28;19906;-90
2022/04/30 16:40:47;;;;;;;5.68;3.05;;;12.50;99.90;;;;;;4964422;28;20038;-91
2022/04/30 16:43:47;;;;;;;7.65;3.20;;;12.40;99.90;;;;;;4958486;29;20023;-92
2022/04/30 16:46:33;;;;;;;5.80;3.03;;;12.40;99.90;;;;;;4971515;28;20196;-91
2022/04/30 16:49:24;;;;;;;;;;;;;;;;;;;;;
2022/04/30 16:52:30;;;;;;;5.30;2.72;;;12.20;99.90;;;;;;4969825;28;20094;-91
2022/04/30 16:59:03;;;;;;;7.32;3.30;;;11.90;99.90;;;;;;4975893;28;20038;-91
2022/04/30 17:04:52;;;;;;;6.70;2.65;;;11.80;99.90;;;;;;4950904;29;20070;-92
2022/04/30 17:08:03;;;;;;;5.13;2.88;;;11.80;99.90;;;;;;4969888;28;20027;-91
2022/04/30 17:10:31;;;;;;;8.10;3.58;;;11.90;99.90;;;;;;4854010;29;20033;-89
2022/04/30 17:13:22;;;;;;;;;;;;;;;;;;;;;
2022/04/30 17:16:08;;;;;;;7.70;3.42;;;11.80;99.90;;;;;;4961439;28;20110;-89
2022/04/30 17:47:47;;;;;;;7.78;3.72;;;11.20;99.90;;;;;;4946619;23;20058;-87
2022/04/30 17:50:16;;;;;;;7.63;3.25;;;11.20;99.90;;;;;;4986355;28;20070;-87
2022/04/30 17:52:42;;;;;;;7.95;3.80;;;11.00;99.90;;;;;;4968288;28;20030;-87
2022/04/30 17:55:10;;;;;;;5.97;3.15;;;11.00;99.90;;;;;;4976502;28;20034;-87
2022/04/30 17:57:40;;;;;;;7.45;3.67;;;10.90;99.90;;;;;;4964454;28;20050;-88
2022/04/30 18:00:16;;;;;;;6.90;3.60;;;10.80;99.90;;;;;;4936958;29;20059;-88
2022/04/30 18:02:45;;;;;;;8.80;4.05;;;10.70;99.90;;;;;;4938765;29;20034;-87
2022/04/30 18:05:11;;;;;;;7.30;3.40;;;10.70;99.90;;;;;;4940007;28;20051;-88
2022/04/30 18:07:37;;;;;;;6.25;3.53;;;10.50;99.90;;;;;;4956761;28;20027;-87
2022/04/30 18:10:04;;;;;;;7.38;4.18;;;10.50;99.90;;;;;;4948827;28;20397;-88
2022/04/30 18:12:31;;;;;;;8.07;3.80;;;10.40;99.90;;;;;;4921895;29;20028;-88
2022/04/30 18:14:57;;;;;;;7.68;3.97;;;10.30;99.90;;;;;;4973716;28;20023;-87
2022/04/30 18:17:26;;;;;;;10.18;4.40;;;10.30;99.90;;;;;;4958908;28;20031;-87
2022/04/30 18:19:55;;;;;;;7.72;3.85;;;10.30;99.90;;;;;;4959049;28;20034;-87
2022/04/30 18:22:21;;;;;;;8.93;4.32;;;10.40;99.90;;;;;;4940648;28;20030;-88
2022/04/30 18:25:03;;;;;;;;;;;;;;;;;;;;;
2022/04/30 18:27:35;;;;;;;9.23;4.95;;;10.30;99.90;;;;;;4962002;28;20035;-88
2022/04/30 18:30:04;;;;;;;8.48;4.40;;;10.30;99.90;;;;;;4943032;28;20058;-87
2022/04/30 18:32:30;;;;;;;11.05;4.95;;;10.40;99.90;;;;;;4933011;28;20027;-86
2022/04/30 18:37:44;;;;;;;7.82;4.28;;;10.30;99.90;;;;;;4953629;28;20404;-88
2022/04/30 18:40:10;;;;;;;8.50;4.47;;;10.30;99.90;;;;;;4934904;28;20114;-87
2022/04/30 18:42:39;;;;;;;9.20;4.78;;;10.20;99.90;;;;;;4939069;29;20514;-87
2022/04/30 18:45:05;;;;;;;10.85;4.85;;;10.00;99.90;;;;;;4944072;28;20028;-87
2022/04/30 18:47:31;;;;;;;10.07;4.80;;;10.10;99.90;;;;;;4935699;29;20422;-87
2022/04/30 18:49:56;;;;;;;10.80;5.40;;;10.00;99.90;;;;;;4936463;28;20031;-87
2022/04/30 18:52:27;;;;;;;9.57;4.70;;;10.00;99.90;;;;;;4939995;28;20028;-87
2022/04/30 19:03:16;;;;;;;9.00;4.72;;;10.00;99.90;;;;;;4957609;28;20038;-87
2022/04/30 19:05:42;;;;;;;11.07;5.32;;;10.10;99.90;;;;;;4934806;28;20447;-87
2022/04/30 19:08:08;;;;;;;9.70;5.35;;;10.00;99.90;;;;;;4949578;28;20031;-87
2022/04/30 19:10:41;;;;;;;9.95;4.95;;;10.20;99.90;;;;;;4959119;28;20027;-87
2022/04/30 19:13:07;;;;;;;9.35;4.53;;;10.00;99.90;;;;;;4958605;28;20106;-87
2022/04/30 19:15:34;;;;;;;11.77;4.35;;;10.00;99.90;;;;;;4957122;28;20042;-88
2022/04/30 19:18:01;;;;;;;12.13;5.35;;;10.10;99.90;;;;;;4957686;28;20089;-86
2022/04/30 19:20:31;;;;;;;11.23;4.80;;;10.10;99.90;;;;;;4941294;29;20023;-86
2022/04/30 19:22:58;;;;;;;9.30;4.57;;;10.20;99.90;;;;;;4951856;28;20035;-85
2022/04/30 19:25:30;;;;;;;8.82;4.82;;;10.10;99.90;;;;;;4949595;28;20114;-86
2022/04/30 19:27:56;;;;;;;9.37;4.57;;;10.10;99.90;;;;;;4958563;28;20548;-87
2022/04/30 19:30:23;;;;;;;9.45;4.68;;;10.00;99.90;;;;;;4944128;29;20334;-87
2022/04/30 19:32:49;;;;;;;8.07;4.32;;;10.10;99.90;;;;;;4941033;29;20028;-86
2022/04/30 19:35:16;;;;;;;10.65;5.25;;;10.00;99.90;;;;;;4940493;29;20031;-86
2022/04/30 19:37:45;;;;;;;9.02;5.10;;;10.00;99.90;;;;;;4944491;28;20030;-86
2022/04/30 19:40:12;;;;;;;10.15;5.38;;;10.00;99.90;;;;;;4940721;29;20426;-85
2022/04/30 19:42:55;;;;;;;11.88;5.38;;;10.10;99.90;;;;;;4949480;28;20146;-85
2022/04/30 19:45:31;;;;;;;9.80;4.75;;;10.00;99.90;;;;;;4945517;29;20059;-85
2022/04/30 19:47:57;;;;;;;9.05;4.32;;;10.10;99.90;;;;;;4947211;28;20058;-85
2022/04/30 19:50:23;;;;;;;11.80;5.15;;;10.00;99.90;;;;;;4949054;28;20485;-86
2022/04/30 19:52:52;;;;;;;9.77;5.38;;;10.00;99.90;;;;;;4943684;28;20111;-86
2022/04/30 19:55:20;;;;;;;9.88;4.72;;;10.00;99.90;;;;;;4947135;28;20095;-86
2022/04/30 19:57:48;;;;;;;9.38;5.22;;;10.00;99.90;;;;;;4946161;28;20039;-85
2022/04/30 20:00:15;;;;;;;9.40;4.93;;;10.00;99.90;;;;;;4940508;29;20072;-85
2022/04/30 20:02:41;;;;;;;12.35;6.00;;;10.00;99.90;;;;;;4937041;29;20031;-86
2022/04/30 20:05:08;;;;;;;10.25;4.82;;;10.10;99.90;;;;;;4951802;28;20453;-86
2022/04/30 20:07:39;;;;;;;11.27;5.88;;;10.00;99.90;;;;;;4930188;29;20054;-85
2022/04/30 20:18:38;;;;;;;8.23;4.28;;;9.90;99.90;;;;;;4957605;28;20548;-86
2022/04/30 20:21:04;;;;;;;10.35;5.05;;;9.80;99.90;;;;;;4937791;28;20027;-85
2022/04/30 20:23:42;;;;;;;12.38;5.70;;;10.00;99.90;;;;;;4952524;28;20037;-86